Time;durP1;ratioP1;P1;durP2;ratioP2;P2;SDS_P1;SDS_P2;PMS_P1;PMS_P2;Temp;Humidity;BMP_temperature;BMP_pressure;BME280_temperature;BME280_humidity;BME280_pressure;Samples;Min_cycle;Max_cycle;Signal;HPM_P1;HPM_P2
2022/12/06 00:01:33;;;;;;;3.20;2.90;;;5.40;88.80;;;;;;5008852;28;20279;-74
2022/12/06 00:04:04;;;;;;;3.10;2.90;;;5.40;88.80;;;;;;5019744;28;20330;-74
2022/12/06 00:06:38;;;;;;;2.67;2.38;;;5.40;88.80;;;;;;4999853;28;20230;-73
2022/12/06 00:09:06;;;;;;;2.92;2.70;;;5.40;88.90;;;;;;5005485;28;20316;-74
2022/12/06 00:11:36;;;;;;;3.33;3.03;;;5.40;88.70;;;;;;5007655;28;20214;-74
2022/12/06 00:14:06;;;;;;;2.97;2.70;;;5.40;88.80;;;;;;5009887;28;20226;-73
2022/12/06 00:16:37;;;;;;;3.42;3.13;;;5.30;88.70;;;;;;5006340;28;20221;-73
2022/12/06 00:19:06;;;;;;;3.55;3.20;;;5.30;88.70;;;;;;5011852;28;20271;-75
2022/12/06 00:21:36;;;;;;;4.65;2.60;;;5.40;88.80;;;;;;5007017;28;20260;-74
2022/12/06 00:24:07;;;;;;;4.00;3.05;;;5.30;88.60;;;;;;5004309;28;20253;-74
2022/12/06 00:26:36;;;;;;;3.22;2.92;;;5.40;88.70;;;;;;5007355;28;20217;-74
2022/12/06 00:29:05;;;;;;;3.05;2.78;;;5.40;88.90;;;;;;5003077;28;20222;-74
2022/12/06 00:31:39;;;;;;;3.30;3.00;;;5.40;88.70;;;;;;5000150;28;20190;-74
2022/12/06 00:34:09;;;;;;;4.00;2.92;;;5.40;88.80;;;;;;5015921;28;20658;-74
2022/12/06 00:36:39;;;;;;;3.08;2.88;;;5.40;88.80;;;;;;5009310;28;20488;-74
2022/12/06 00:39:10;;;;;;;3.65;2.58;;;5.30;88.80;;;;;;5006254;28;20644;-75
2022/12/06 00:41:39;;;;;;;2.83;2.55;;;5.40;88.80;;;;;;4998569;28;20202;-75
2022/12/06 00:44:08;;;;;;;3.28;2.90;;;5.40;88.90;;;;;;5005915;28;20260;-74
2022/12/06 00:46:38;;;;;;;3.08;2.78;;;5.40;88.80;;;;;;5003105;28;20221;-74
2022/12/06 00:49:08;;;;;;;3.35;2.75;;;5.30;88.80;;;;;;5007584;28;20235;-74
2022/12/06 00:51:38;;;;;;;3.10;2.80;;;5.40;88.80;;;;;;5010944;28;20237;-74
2022/12/06 00:54:08;;;;;;;3.25;3.00;;;5.40;88.80;;;;;;5004558;28;20226;-73
2022/12/06 00:56:37;;;;;;;4.15;3.15;;;5.40;88.90;;;;;;4999170;28;20321;-74
2022/12/06 00:59:06;;;;;;;2.97;2.78;;;5.40;88.90;;;;;;5004869;28;20220;-74
2022/12/06 01:01:35;;;;;;;4.07;3.00;;;5.30;88.70;;;;;;5004370;28;20277;-73
2022/12/06 01:04:06;;;;;;;3.70;2.90;;;5.40;88.70;;;;;;5006615;28;20214;-75
2022/12/06 01:06:38;;;;;;;3.70;3.25;;;5.40;88.80;;;;;;5007349;28;20731;-73
2022/12/06 01:09:09;;;;;;;3.53;3.22;;;5.30;88.70;;;;;;5005985;28;20689;-74
2022/12/06 01:11:37;;;;;;;4.88;3.10;;;5.30;88.70;;;;;;4999598;28;20617;-74
2022/12/06 01:14:06;;;;;;;3.28;2.95;;;5.30;88.60;;;;;;5003561;28;20244;-73
2022/12/06 01:16:35;;;;;;;3.03;2.72;;;5.40;88.70;;;;;;5004255;28;20214;-76
2022/12/06 01:19:06;;;;;;;3.50;3.20;;;5.40;88.80;;;;;;5009312;28;20217;-75
2022/12/06 01:21:35;;;;;;;3.47;3.17;;;5.40;88.90;;;;;;5007533;28;20282;-74
2022/12/06 01:24:04;;;;;;;2.92;2.33;;;5.40;88.80;;;;;;5003417;28;20321;-74
2022/12/06 01:26:34;;;;;;;2.95;2.65;;;5.40;88.80;;;;;;5005881;28;20249;-74
2022/12/06 01:29:03;;;;;;;2.72;2.50;;;5.40;88.80;;;;;;5014142;28;20247;-74
2022/12/06 01:31:32;;;;;;;3.00;2.60;;;5.40;88.80;;;;;;5010962;28;20212;-73
2022/12/06 01:34:13;;;;;;;2.30;2.10;;;5.30;88.70;;;;;;5008902;28;20688;-74
2022/12/06 01:36:42;;;;;;;3.22;2.92;;;5.30;88.70;;;;;;4998535;28;20221;-74
2022/12/06 01:39:11;;;;;;;3.15;2.90;;;5.40;88.80;;;;;;5000454;28;20222;-74
2022/12/06 01:41:40;;;;;;;4.20;3.33;;;5.30;88.70;;;;;;4997966;28;20293;-74
2022/12/06 01:44:42;;;;;;;3.20;2.85;;;5.30;88.70;;;;;;4988852;28;20312;-74
2022/12/06 01:47:14;;;;;;;3.05;2.80;;;5.30;88.70;;;;;;5002370;28;20295;-74
2022/12/06 01:49:48;;;;;;;2.80;2.60;;;5.30;88.70;;;;;;4998912;28;20202;-73
2022/12/06 01:52:17;;;;;;;3.55;3.03;;;5.30;88.70;;;;;;5021624;28;20198;-74
2022/12/06 01:54:46;;;;;;;2.92;2.63;;;5.40;88.80;;;;;;5004257;28;20402;-74
2022/12/06 01:57:16;;;;;;;3.10;2.90;;;5.30;88.70;;;;;;4996513;28;20222;-75
2022/12/06 01:59:45;;;;;;;2.42;2.10;;;5.30;88.70;;;;;;5001583;28;20286;-73
2022/12/06 02:02:14;;;;;;;3.00;2.80;;;5.30;88.70;;;;;;5015299;28;20205;-74
2022/12/06 02:04:45;;;;;;;3.22;2.92;;;5.30;88.80;;;;;;5007416;28;20197;-74
2022/12/06 02:07:14;;;;;;;3.28;2.90;;;5.30;88.70;;;;;;5006150;28;20694;-74
2022/12/06 02:09:44;;;;;;;3.58;3.28;;;5.30;88.70;;;;;;5008538;28;20263;-74
2022/12/06 02:12:15;;;;;;;2.65;2.45;;;5.30;88.70;;;;;;5013393;28;20669;-74
2022/12/06 02:14:47;;;;;;;3.75;3.00;;;5.30;88.70;;;;;;4997113;28;20324;-73
2022/12/06 02:17:32;;;;;;;3.10;2.40;;;5.30;88.70;;;;;;5013307;28;20241;-74
2022/12/06 02:20:16;;;;;;;3.45;2.58;;;5.30;88.70;;;;;;5004852;28;20193;-73
2022/12/06 02:23:20;;;;;;;3.20;2.90;;;5.30;88.70;;;;;;4997434;28;20225;-74
2022/12/06 02:26:16;;;;;;;2.50;2.30;;;5.30;88.80;;;;;;4999481;28;20561;-74
2022/12/06 02:29:11;;;;;;;2.60;2.40;;;5.30;88.80;;;;;;5002378;28;20272;-73
2022/12/06 02:31:48;;;;;;;3.00;2.75;;;5.30;88.80;;;;;;5020322;28;20676;-73
2022/12/06 02:34:20;;;;;;;3.60;2.63;;;5.30;88.80;;;;;;5012552;28;20312;-74
2022/12/06 02:36:56;;;;;;;3.42;2.90;;;5.30;89.90;;;;;;5004790;28;20236;-74
2022/12/06 02:39:28;;;;;;;2.42;2.20;;;5.30;88.80;;;;;;5005847;28;20713;-74
2022/12/06 02:42:02;;;;;;;3.20;2.90;;;5.30;88.80;;;;;;5010097;28;20312;-74
2022/12/06 02:44:36;;;;;;;2.35;2.15;;;5.30;88.80;;;;;;5004378;28;20338;-73
2022/12/06 02:47:10;;;;;;;3.55;2.50;;;5.30;88.80;;;;;;5007195;28;20220;-73
2022/12/06 02:49:43;;;;;;;3.25;2.90;;;5.30;88.70;;;;;;5001839;28;20670;-74
2022/12/06 02:52:13;;;;;;;2.65;2.42;;;5.30;88.90;;;;;;5012634;28;20236;-73
2022/12/06 02:54:46;;;;;;;3.58;2.47;;;5.30;88.80;;;;;;5014802;28;20221;-74
2022/12/06 02:57:14;;;;;;;2.60;2.20;;;5.30;88.70;;;;;;5011891;28;20309;-76
2022/12/06 02:59:52;;;;;;;3.75;2.92;;;5.30;88.80;;;;;;5009982;28;20919;-73
2022/12/06 03:02:22;;;;;;;3.25;2.58;;;5.30;88.70;;;;;;5008567;28;20764;-73
2022/12/06 03:05:05;;;;;;;3.17;2.88;;;5.30;88.80;;;;;;5014740;28;20820;-73
2022/12/06 03:07:39;;;;;;;2.97;2.53;;;5.30;88.80;;;;;;5008276;28;20702;-74
2022/12/06 03:10:28;;;;;;;6.93;3.22;;;5.30;88.80;;;;;;5009232;28;20922;-73
2022/12/06 03:13:07;;;;;;;2.42;2.22;;;5.30;88.90;;;;;;5002067;28;20263;-73
2022/12/06 03:15:53;;;;;;;2.75;2.55;;;5.30;88.80;;;;;;5007981;28;20298;-74
2022/12/06 03:18:30;;;;;;;2.45;1.77;;;5.30;88.90;;;;;;5007545;28;20226;-74
2022/12/06 03:21:03;;;;;;;2.80;2.60;;;5.30;88.90;;;;;;5000302;28;20261;-74
2022/12/06 03:23:36;;;;;;;3.15;2.20;;;5.30;88.90;;;;;;5005983;28;20253;-73
2022/12/06 03:26:07;;;;;;;2.63;2.42;;;5.30;88.80;;;;;;5025104;28;20229;-73
2022/12/06 03:28:38;;;;;;;3.42;2.90;;;5.30;88.80;;;;;;5010319;28;20304;-75
2022/12/06 03:31:11;;;;;;;2.30;2.10;;;5.30;88.90;;;;;;5005400;28;20280;-74
2022/12/06 03:33:45;;;;;;;2.63;2.25;;;5.30;88.80;;;;;;5020049;28;20689;-74
2022/12/06 03:36:17;;;;;;;3.00;2.53;;;5.30;88.80;;;;;;5011917;28;20190;-74
2022/12/06 03:38:51;;;;;;;2.55;2.35;;;5.30;88.90;;;;;;5018786;28;20229;-73
2022/12/06 03:41:24;;;;;;;2.28;2.00;;;5.30;88.80;;;;;;5016211;28;20198;-73
2022/12/06 03:43:52;;;;;;;2.55;2.35;;;5.30;88.80;;;;;;5022551;28;20228;-74
2022/12/06 03:46:26;;;;;;;2.80;2.40;;;5.30;88.90;;;;;;5008799;28;20214;-73
2022/12/06 03:49:01;;;;;;;2.30;2.10;;;5.30;88.90;;;;;;5019008;28;20751;-75
2022/12/06 03:51:32;;;;;;;2.63;2.40;;;5.30;88.80;;;;;;5023292;28;20727;-74
2022/12/06 03:54:04;;;;;;;3.13;2.80;;;5.30;88.80;;;;;;5008305;28;20222;-74
2022/12/06 03:56:35;;;;;;;2.25;2.05;;;5.30;88.80;;;;;;5006633;28;20222;-73
2022/12/06 03:59:04;;;;;;;2.80;2.60;;;5.30;88.80;;;;;;5012832;28;20266;-74
2022/12/06 04:01:33;;;;;;;2.58;2.33;;;5.30;88.90;;;;;;5008670;28;20259;-74
2022/12/06 04:04:05;;;;;;;3.08;2.78;;;5.30;88.90;;;;;;5010535;28;20230;-75
2022/12/06 04:06:34;;;;;;;2.90;2.53;;;5.30;88.90;;;;;;5007372;28;20312;-73
2022/12/06 04:11:45;;;;;;;3.40;2.67;;;5.30;88.90;;;;;;4999891;28;20226;-73
2022/12/06 04:14:15;;;;;;;2.67;2.47;;;5.30;88.90;;;;;;5015755;28;20221;-74
2022/12/06 04:19:42;;;;;;;2.95;2.47;;;5.30;88.90;;;;;;4930663;29;20249;-73
2022/12/06 04:25:03;;;;;;;3.05;2.67;;;5.30;88.80;;;;;;5014509;28;20497;-73
2022/12/06 04:38:39;;;;;;;3.05;2.58;;;5.30;88.90;;;;;;4944727;28;20223;-74
2022/12/06 04:41:08;;;;;;;3.60;3.28;;;5.30;88.90;;;;;;4940210;28;20317;-74
2022/12/06 04:43:42;;;;;;;3.28;2.40;;;5.30;88.90;;;;;;5008894;28;20216;-74
2022/12/06 04:46:12;;;;;;;3.28;2.10;;;5.30;88.90;;;;;;5009463;28;20613;-74
2022/12/06 04:48:41;;;;;;;2.50;2.10;;;5.30;88.90;;;;;;5009085;28;20521;-73
2022/12/06 04:51:11;;;;;;;2.50;2.30;;;5.30;88.90;;;;;;5014748;28;20245;-73
2022/12/06 04:53:43;;;;;;;3.20;2.90;;;5.30;88.90;;;;;;5017698;28;20238;-73
2022/12/06 04:56:12;;;;;;;2.30;2.10;;;5.30;88.90;;;;;;5029154;28;20703;-73
2022/12/06 04:58:40;;;;;;;2.75;2.42;;;5.30;88.90;;;;;;5029708;28;20593;-74
2022/12/06 05:01:09;;;;;;;2.78;2.50;;;5.30;88.90;;;;;;5005096;28;20214;-74
2022/12/06 05:03:38;;;;;;;2.65;2.45;;;5.30;88.90;;;;;;5005636;28;20228;-74
2022/12/06 05:06:13;;;;;;;6.30;2.38;;;5.30;88.90;;;;;;5011765;28;20189;-73
2022/12/06 05:08:41;;;;;;;2.88;2.50;;;5.30;88.90;;;;;;5004824;28;20210;-73
2022/12/06 05:11:10;;;;;;;6.55;2.70;;;5.30;88.90;;;;;;5021573;28;20550;-73
2022/12/06 05:13:38;;;;;;;2.22;2.03;;;5.30;88.90;;;;;;5013258;28;20238;-73
2022/12/06 05:16:08;;;;;;;4.07;2.60;;;5.30;89.00;;;;;;5006533;28;20293;-73
2022/12/06 05:18:37;;;;;;;2.67;2.35;;;5.30;88.90;;;;;;5000541;28;20593;-74
2022/12/06 05:21:08;;;;;;;5.07;2.78;;;5.30;88.90;;;;;;5027135;28;20224;-74
2022/12/06 05:23:38;;;;;;;2.72;2.53;;;5.30;88.90;;;;;;5019327;28;20214;-74
2022/12/06 05:26:08;;;;;;;3.47;2.25;;;5.30;89.00;;;;;;5014705;28;20248;-74
2022/12/06 05:28:37;;;;;;;3.45;2.83;;;5.30;88.90;;;;;;5022692;28;20312;-74
2022/12/06 05:31:06;;;;;;;3.00;2.55;;;5.30;88.90;;;;;;5004779;28;20248;-73
2022/12/06 05:33:35;;;;;;;3.10;2.47;;;5.30;88.90;;;;;;5012955;28;20218;-74
2022/12/06 05:36:07;;;;;;;3.33;2.50;;;5.30;88.90;;;;;;5010216;28;20765;-74
2022/12/06 05:38:38;;;;;;;3.13;2.83;;;5.30;88.90;;;;;;5002274;28;20726;-75
2022/12/06 05:41:07;;;;;;;2.60;2.17;;;5.30;88.90;;;;;;5014290;28;20605;-74
2022/12/06 05:43:36;;;;;;;4.45;2.55;;;5.30;88.90;;;;;;5016530;28;20248;-73
2022/12/06 05:46:04;;;;;;;4.82;2.28;;;5.30;89.10;;;;;;5014942;28;20221;-73
2022/12/06 05:48:33;;;;;;;2.33;2.10;;;5.30;88.90;;;;;;5004396;28;20654;-74
2022/12/06 05:51:02;;;;;;;4.90;3.10;;;5.30;89.50;;;;;;5005099;28;20333;-74
2022/12/06 05:53:31;;;;;;;3.03;2.67;;;5.30;89.00;;;;;;5015018;28;20225;-73
2022/12/06 05:56:07;;;;;;;3.17;2.85;;;5.30;89.00;;;;;;5006426;28;20199;-73
2022/12/06 05:58:36;;;;;;;3.00;2.55;;;5.30;89.00;;;;;;5023881;28;20215;-74
2022/12/06 06:01:05;;;;;;;2.90;2.40;;;5.30;88.90;;;;;;5013519;28;20206;-74
2022/12/06 06:03:34;;;;;;;2.70;2.50;;;5.30;89.00;;;;;;5015699;28;20209;-73
2022/12/06 06:06:04;;;;;;;3.75;2.83;;;5.30;88.90;;;;;;5005435;28;20285;-74
2022/12/06 06:08:33;;;;;;;2.78;2.50;;;5.30;88.90;;;;;;5006544;28;20224;-73
2022/12/06 06:11:02;;;;;;;2.47;2.20;;;5.30;89.00;;;;;;5014267;28;20201;-74
2022/12/06 06:13:33;;;;;;;3.10;2.22;;;5.30;89.00;;;;;;5018241;28;20217;-74
2022/12/06 06:16:02;;;;;;;2.45;2.17;;;5.30;88.90;;;;;;5012107;28;20281;-74
2022/12/06 06:18:30;;;;;;;2.90;2.38;;;5.30;88.90;;;;;;5016110;28;20224;-74
2022/12/06 06:21:00;;;;;;;3.40;2.55;;;5.30;88.90;;;;;;5016252;28;20382;-74
2022/12/06 06:23:30;;;;;;;2.33;2.13;;;5.30;88.90;;;;;;5021364;28;20279;-74
2022/12/06 06:25:59;;;;;;;2.97;2.33;;;5.30;88.90;;;;;;5022904;28;20229;-73
2022/12/06 06:28:27;;;;;;;2.97;2.13;;;5.30;89.00;;;;;;5008582;28;20991;-73
2022/12/06 06:31:01;;;;;;;2.28;1.77;;;5.30;89.00;;;;;;5020012;28;20201;-74
2022/12/06 06:33:32;;;;;;;3.38;2.70;;;5.30;89.00;;;;;;5018780;28;20214;-74
2022/12/06 06:36:00;;;;;;;2.63;2.33;;;5.30;89.00;;;;;;5009609;28;20209;-74
2022/12/06 06:38:28;;;;;;;3.22;2.92;;;5.30;89.00;;;;;;5024302;28;20837;-73
2022/12/06 06:40:57;;;;;;;2.92;2.53;;;5.30;89.00;;;;;;5014754;28;20562;-73
2022/12/06 06:43:26;;;;;;;2.92;2.10;;;5.30;89.00;;;;;;5023129;28;20255;-74
2022/12/06 06:45:55;;;;;;;3.25;2.75;;;5.30;89.00;;;;;;5014247;28;20241;-74
2022/12/06 06:48:27;;;;;;;3.25;2.20;;;5.30;88.90;;;;;;5010410;28;20230;-73
2022/12/06 06:50:56;;;;;;;3.63;2.70;;;5.30;89.00;;;;;;5018784;28;20294;-74
2022/12/06 06:53:26;;;;;;;2.97;2.67;;;5.30;89.00;;;;;;5024282;28;20224;-73
2022/12/06 06:55:55;;;;;;;4.25;2.97;;;5.30;88.90;;;;;;5010814;28;20219;-74
2022/12/06 06:58:24;;;;;;;2.45;2.25;;;5.30;89.00;;;;;;5006546;28;20218;-73
2022/12/06 07:00:54;;;;;;;3.95;2.50;;;5.30;89.00;;;;;;5007174;28;20294;-74
2022/12/06 07:03:23;;;;;;;2.58;2.22;;;5.30;89.00;;;;;;5008401;28;20597;-74
2022/12/06 07:05:55;;;;;;;3.35;2.33;;;5.30;89.00;;;;;;5008114;28;20202;-74
2022/12/06 07:08:23;;;;;;;2.85;2.55;;;5.30;89.00;;;;;;5016402;28;20352;-74
2022/12/06 07:10:53;;;;;;;3.72;2.50;;;5.30;89.00;;;;;;5038939;28;20190;-74
2022/12/06 07:13:23;;;;;;;3.72;2.40;;;5.30;89.10;;;;;;5015244;28;20233;-74
2022/12/06 07:15:52;;;;;;;3.08;2.45;;;5.30;89.00;;;;;;5020491;28;20723;-75
2022/12/06 07:18:21;;;;;;;2.35;2.15;;;5.30;89.00;;;;;;5017356;28;20230;-74
2022/12/06 07:20:58;;;;;;;3.97;2.50;;;5.30;89.10;;;;;;5014556;28;20225;-73
2022/12/06 07:23:27;;;;;;;2.50;2.30;;;5.30;89.00;;;;;;5009959;28;20232;-73
2022/12/06 07:26:03;;;;;;;2.92;2.45;;;5.30;89.00;;;;;;5018994;28;20201;-74
2022/12/06 07:28:32;;;;;;;3.90;2.90;;;5.30;89.00;;;;;;5024212;28;20248;-74
2022/12/06 07:31:08;;;;;;;2.30;2.10;;;5.30;89.00;;;;;;5006623;28;20186;-75
2022/12/06 07:33:36;;;;;;;2.83;2.47;;;5.30;88.90;;;;;;5010748;28;20212;-73
2022/12/06 07:36:06;;;;;;;2.60;2.40;;;5.30;88.90;;;;;;5020206;28;20197;-74
2022/12/06 07:38:42;;;;;;;3.30;2.72;;;5.30;89.00;;;;;;5005067;28;20209;-74
2022/12/06 07:46:47;;;;;;;2.53;2.22;;;5.30;89.00;;;;;;5010348;28;20556;-74
2022/12/06 07:49:16;;;;;;;2.58;2.38;;;5.30;89.10;;;;;;5010728;28;20249;-75
2022/12/06 07:51:44;;;;;;;2.75;2.00;;;5.30;89.00;;;;;;5008238;28;20198;-75
2022/12/06 07:54:16;;;;;;;4.50;2.30;;;5.30;89.00;;;;;;5010023;28;20746;-74
2022/12/06 07:56:47;;;;;;;2.58;2.38;;;5.30;88.90;;;;;;5033066;28;20850;-74
2022/12/06 07:59:18;;;;;;;3.55;2.90;;;5.30;89.00;;;;;;5020076;28;20605;-74
2022/12/06 08:01:48;;;;;;;1.98;1.85;;;5.30;89.10;;;;;;5019772;28;20662;-74
2022/12/06 08:04:17;;;;;;;2.97;2.70;;;5.30;89.00;;;;;;5018269;28;20284;-73
2022/12/06 08:06:46;;;;;;;2.63;2.30;;;5.30;89.00;;;;;;5004279;28;20223;-73
2022/12/06 08:09:16;;;;;;;3.00;2.60;;;5.30;89.00;;;;;;5003794;28;20245;-74
2022/12/06 08:11:44;;;;;;;3.00;2.55;;;5.30;88.90;;;;;;5023657;28;20276;-74
2022/12/06 08:14:13;;;;;;;3.42;2.60;;;5.30;89.00;;;;;;5007135;28;20316;-73
2022/12/06 08:16:41;;;;;;;4.00;2.38;;;5.30;89.00;;;;;;5003904;28;20198;-74
2022/12/06 08:19:10;;;;;;;3.92;2.65;;;5.30;89.00;;;;;;5006710;28;20302;-74
2022/12/06 08:21:39;;;;;;;3.42;2.58;;;5.30;89.00;;;;;;5001347;28;20205;-76
2022/12/06 08:24:08;;;;;;;3.45;2.83;;;5.30;89.10;;;;;;5000551;28;20256;-74
2022/12/06 08:26:38;;;;;;;2.35;1.88;;;5.30;89.10;;;;;;4995753;28;20225;-74
2022/12/06 08:29:06;;;;;;;2.55;2.15;;;5.30;89.10;;;;;;5002918;28;20355;-74
2022/12/06 08:31:35;;;;;;;2.88;2.50;;;5.30;89.00;;;;;;5024732;28;20197;-75
2022/12/06 08:34:04;;;;;;;2.88;2.53;;;5.30;89.00;;;;;;5019366;28;20577;-74
2022/12/06 08:36:33;;;;;;;3.30;2.88;;;5.30;89.00;;;;;;5007022;28;20210;-74
2022/12/06 08:39:01;;;;;;;2.50;2.30;;;5.30;89.00;;;;;;5013163;28;20742;-73
2022/12/06 08:44:19;;;;;;;4.70;2.80;;;5.30;89.10;;;;;;5024371;28;20249;-73
2022/12/06 08:46:49;;;;;;;2.67;2.28;;;5.30;89.10;;;;;;5006000;28;20225;-75
2022/12/06 08:49:18;;;;;;;3.15;2.40;;;5.30;89.00;;;;;;5014622;28;20228;-74
2022/12/06 08:51:47;;;;;;;3.38;2.40;;;5.30;89.10;;;;;;5017312;28;20196;-74
2022/12/06 08:54:17;;;;;;;5.22;2.50;;;5.30;89.20;;;;;;5004766;28;20309;-74
2022/12/06 08:56:47;;;;;;;2.63;2.42;;;5.30;89.20;;;;;;5014734;28;20636;-74
2022/12/06 08:59:18;;;;;;;2.42;2.22;;;5.30;89.20;;;;;;5012714;28;20671;-74
2022/12/06 09:01:47;;;;;;;4.05;2.70;;;5.30;89.10;;;;;;5009639;28;20201;-75
2022/12/06 09:04:15;;;;;;;2.63;2.20;;;5.30;89.10;;;;;;5002814;28;20301;-73
2022/12/06 09:06:45;;;;;;;4.03;2.80;;;5.30;89.10;;;;;;5018656;28;20219;-74
2022/12/06 09:09:15;;;;;;;3.22;2.33;;;5.30;89.10;;;;;;5005037;28;20312;-75
2022/12/06 09:11:45;;;;;;;2.28;2.08;;;5.30;89.10;;;;;;5018745;28;20193;-74
2022/12/06 09:14:15;;;;;;;2.90;2.70;;;5.30;89.10;;;;;;5009023;28;20222;-74
2022/12/06 09:16:51;;;;;;;4.65;2.50;;;5.30;89.10;;;;;;5030330;28;20220;-75
2022/12/06 09:19:20;;;;;;;4.55;3.38;;;5.30;89.20;;;;;;5004342;28;20244;-73
2022/12/06 09:21:49;;;;;;;3.88;3.17;;;5.30;90.50;;;;;;5011911;28;20686;-73
2022/12/06 09:24:18;;;;;;;3.75;3.20;;;5.30;90.40;;;;;;4991697;28;20308;-73
2022/12/06 09:26:47;;;;;;;6.15;3.22;;;5.30;90.60;;;;;;4987037;28;20795;-73
2022/12/06 09:29:17;;;;;;;10.30;6.57;;;5.30;90.80;;;;;;5006543;28;20276;-75
2022/12/06 09:31:46;;;;;;;10.75;7.82;;;5.30;90.80;;;;;;5014728;28;20442;-71
2022/12/06 09:34:16;;;;;;;12.10;6.22;;;5.40;92.80;;;;;;5018923;28;20581;-71
2022/12/06 09:36:48;;;;;;;12.35;8.88;;;5.40;92.30;;;;;;5002207;28;20581;-71
2022/12/06 09:39:21;;;;;;;7.20;5.13;;;5.40;92.60;;;;;;5013655;28;20245;-71
2022/12/06 09:42:32;;;;;;;9.43;6.30;;;5.40;92.40;;;;;;5017661;28;20196;-71
2022/12/06 09:45:35;;;;;;;6.20;5.00;;;5.40;92.20;;;;;;5005157;28;20309;-70
2022/12/06 09:48:42;;;;;;;9.43;5.43;;;5.40;92.20;;;;;;5003210;28;20225;-70
2022/12/06 09:51:31;;;;;;;5.70;4.40;;;5.40;91.90;;;;;;5007296;28;20225;-70
2022/12/06 09:54:13;;;;;;;6.63;4.38;;;5.30;91.80;;;;;;5009956;28;20713;-72
2022/12/06 09:56:50;;;;;;;6.70;5.28;;;5.30;91.80;;;;;;5027595;28;20221;-71
2022/12/06 09:59:27;;;;;;;6.50;4.97;;;5.40;91.70;;;;;;4997223;28;20665;-71
2022/12/06 10:02:17;;;;;;;6.43;4.20;;;5.40;91.70;;;;;;4988699;28;20198;-71
2022/12/06 10:05:16;;;;;;;8.30;5.03;;;5.40;91.50;;;;;;5002851;28;20269;-71
2022/12/06 10:07:52;;;;;;;6.55;4.53;;;5.30;91.40;;;;;;4997224;28;20296;-71
2022/12/06 10:10:26;;;;;;;6.60;5.13;;;5.40;91.40;;;;;;5005380;28;20194;-71
2022/12/06 10:13:03;;;;;;;6.63;5.00;;;5.40;91.40;;;;;;5021712;28;20225;-71
2022/12/06 10:15:45;;;;;;;6.30;4.18;;;5.30;91.30;;;;;;4997374;28;20198;-72
2022/12/06 10:18:27;;;;;;;6.07;4.57;;;5.40;91.30;;;;;;5031550;28;20957;-71
2022/12/06 10:21:04;;;;;;;5.63;4.15;;;5.30;91.30;;;;;;5015563;28;20432;-69
2022/12/06 10:23:48;;;;;;;6.30;4.10;;;5.30;91.10;;;;;;5008774;28;20248;-70
2022/12/06 10:26:20;;;;;;;4.85;3.67;;;5.30;91.10;;;;;;5008615;28;20206;-73
2022/12/06 10:29:00;;;;;;;5.43;3.97;;;5.30;91.10;;;;;;5013180;28;20309;-74
2022/12/06 10:31:36;;;;;;;6.22;4.38;;;5.30;91.10;;;;;;5006160;28;20374;-74
2022/12/06 10:34:14;;;;;;;5.65;3.60;;;5.30;91.10;;;;;;5012608;28;20776;-75
2022/12/06 10:36:55;;;;;;;5.50;4.50;;;5.30;91.00;;;;;;5022827;28;20305;-74
2022/12/06 10:39:31;;;;;;;5.85;4.60;;;5.40;91.10;;;;;;5004682;28;20745;-74
2022/12/06 10:42:07;;;;;;;5.43;4.07;;;5.40;91.00;;;;;;5005611;28;20275;-74
2022/12/06 10:44:41;;;;;;;5.55;3.65;;;5.40;91.00;;;;;;5004113;28;20204;-73
2022/12/06 10:47:13;;;;;;;6.18;3.88;;;5.40;91.50;;;;;;5013378;28;20211;-74
2022/12/06 10:49:52;;;;;;;4.45;3.80;;;5.40;91.00;;;;;;5014456;28;20714;-74
2022/12/06 10:52:33;;;;;;;6.43;4.10;;;5.40;91.00;;;;;;5029692;28;20193;-75
2022/12/06 10:55:17;;;;;;;5.25;4.20;;;5.40;91.10;;;;;;5019515;28;20268;-74
2022/12/06 10:57:51;;;;;;;4.63;3.50;;;5.40;91.00;;;;;;5013592;28;20229;-74
2022/12/06 11:00:24;;;;;;;4.93;4.13;;;5.40;91.00;;;;;;5013380;28;20229;-73
2022/12/06 11:02:59;;;;;;;5.03;4.28;;;5.40;90.90;;;;;;5014564;28;20202;-74
2022/12/06 11:05:34;;;;;;;4.47;3.97;;;5.40;90.90;;;;;;5014137;28;20288;-73
2022/12/06 11:08:07;;;;;;;5.40;4.57;;;5.30;90.90;;;;;;5008523;28;20706;-74
2022/12/06 11:10:39;;;;;;;5.47;4.55;;;5.40;90.90;;;;;;5009681;28;20190;-75
2022/12/06 11:13:18;;;;;;;4.22;3.55;;;5.40;91.00;;;;;;5045493;28;20221;-74
2022/12/06 11:15:53;;;;;;;6.20;3.30;;;5.40;90.90;;;;;;5011167;28;20217;-74
2022/12/06 11:18:25;;;;;;;6.28;3.95;;;5.40;90.90;;;;;;5018009;28;20221;-74
2022/12/06 11:20:58;;;;;;;6.32;4.20;;;5.40;91.00;;;;;;5014223;28;20284;-74
2022/12/06 11:23:35;;;;;;;3.47;2.88;;;5.40;90.90;;;;;;5008440;28;20601;-73
2022/12/06 11:26:21;;;;;;;5.03;4.45;;;5.40;90.90;;;;;;5011681;28;20201;-74
2022/12/06 11:29:02;;;;;;;6.88;4.50;;;5.40;90.90;;;;;;5009451;28;20701;-75
2022/12/06 11:31:34;;;;;;;6.00;4.55;;;5.40;91.10;;;;;;5008824;28;20290;-74
2022/12/06 11:34:04;;;;;;;4.95;3.80;;;5.40;90.80;;;;;;5009163;28;20619;-74
2022/12/06 11:36:34;;;;;;;6.40;3.53;;;5.40;90.80;;;;;;5009116;28;20222;-74
2022/12/06 11:39:03;;;;;;;6.90;3.97;;;5.40;90.90;;;;;;5006161;28;20325;-74
2022/12/06 11:41:36;;;;;;;4.25;3.78;;;5.40;90.80;;;;;;5011216;28;20348;-73
2022/12/06 11:44:06;;;;;;;5.40;3.33;;;5.40;90.80;;;;;;5018306;28;20213;-74
2022/12/06 11:46:35;;;;;;;6.60;4.55;;;5.40;91.30;;;;;;5024264;28;20218;-75
2022/12/06 11:49:13;;;;;;;3.72;3.30;;;5.40;90.90;;;;;;5016505;28;20226;-75
2022/12/06 11:51:42;;;;;;;3.53;2.80;;;5.40;90.80;;;;;;5007960;28;20197;-73
2022/12/06 11:54:22;;;;;;;4.90;3.45;;;5.40;90.80;;;;;;5014426;28;20213;-73
2022/12/06 11:56:57;;;;;;;6.63;4.35;;;5.40;90.80;;;;;;5006886;28;20776;-73
2022/12/06 11:59:28;;;;;;;3.40;2.90;;;5.40;90.80;;;;;;5008116;28;20244;-73
2022/12/06 12:01:59;;;;;;;3.78;3.35;;;5.40;90.90;;;;;;5016267;28;20574;-74
2022/12/06 12:04:35;;;;;;;4.43;3.38;;;5.40;90.90;;;;;;5015354;28;20284;-75
2022/12/06 12:07:12;;;;;;;4.40;3.10;;;5.40;90.90;;;;;;5014400;28;20697;-73
2022/12/06 12:09:52;;;;;;;4.00;3.65;;;5.40;90.80;;;;;;4999655;28;20185;-73
2022/12/06 12:13:42;;;;;;;4.63;3.50;;;5.40;90.80;;;;;;5008068;28;20233;-73
2022/12/06 12:15:18;;;;;;;3.67;3.10;;;5.40;90.90;;;;;;5006935;28;20733;-74
2022/12/06 12:17:49;;;;;;;3.80;3.08;;;5.40;90.80;;;;;;5006717;28;20209;-73
2022/12/06 12:20:21;;;;;;;3.92;3.08;;;5.40;90.80;;;;;;5007693;28;20534;-73
2022/12/06 12:22:58;;;;;;;3.78;3.38;;;5.40;90.80;;;;;;5017754;28;20284;-75
2022/12/06 12:25:28;;;;;;;3.10;2.80;;;5.40;90.80;;;;;;5012327;28;20198;-74
2022/12/06 12:28:00;;;;;;;3.30;3.00;;;5.40;90.80;;;;;;5020332;28;20292;-74
2022/12/06 12:30:35;;;;;;;3.63;3.00;;;5.40;90.80;;;;;;4991414;28;20224;-74
2022/12/06 12:33:19;;;;;;;7.22;2.97;;;5.40;90.80;;;;;;5013791;28;20239;-75
2022/12/06 12:35:49;;;;;;;4.28;3.33;;;5.40;90.80;;;;;;5004714;28;20288;-74
2022/12/06 12:38:36;;;;;;;4.03;3.20;;;5.40;90.90;;;;;;5014477;28;20217;-74
2022/12/06 12:41:19;;;;;;;4.13;2.75;;;5.40;90.80;;;;;;5007056;28;20198;-75
2022/12/06 12:43:57;;;;;;;3.35;2.90;;;5.40;90.80;;;;;;5003960;28;20223;-75
2022/12/06 12:46:52;;;;;;;5.10;2.95;;;5.40;90.90;;;;;;5009301;28;20214;-74
2022/12/06 12:49:28;;;;;;;3.22;2.92;;;5.40;90.80;;;;;;5008055;28;20225;-73
2022/12/06 12:51:57;;;;;;;3.40;2.78;;;5.40;90.80;;;;;;5011774;28;20196;-74
2022/12/06 12:54:30;;;;;;;4.30;3.88;;;5.40;90.90;;;;;;5039507;28;20193;-71
2022/12/06 12:57:01;;;;;;;6.25;3.05;;;5.40;90.80;;;;;;5020479;28;20221;-70
2022/12/06 12:59:37;;;;;;;5.70;3.55;;;5.40;90.80;;;;;;5009383;28;20281;-70
2022/12/06 13:02:18;;;;;;;5.20;3.40;;;5.40;91.40;;;;;;5006063;28;20185;-70
2022/12/06 13:04:49;;;;;;;5.05;3.50;;;5.40;90.90;;;;;;4999185;28;20201;-71
2022/12/06 13:10:58;;;;;;;4.28;3.13;;;5.40;91.00;;;;;;5007415;28;20213;-71
2022/12/06 13:13:35;;;;;;;3.83;3.05;;;5.40;91.10;;;;;;5016115;28;20213;-71
2022/12/06 13:16:12;;;;;;;5.35;3.05;;;5.40;90.90;;;;;;5013407;28;20197;-71
2022/12/06 13:18:46;;;;;;;3.58;2.80;;;5.40;91.00;;;;;;5014783;28;20220;-70
2022/12/06 13:21:21;;;;;;;3.55;3.10;;;5.40;91.00;;;;;;5009649;28;20198;-72
2022/12/06 13:23:53;;;;;;;3.70;3.33;;;5.40;90.90;;;;;;5007850;28;20245;-70
2022/12/06 13:26:28;;;;;;;6.65;3.20;;;5.50;90.90;;;;;;5013573;28;20201;-71
2022/12/06 13:28:59;;;;;;;2.88;2.60;;;5.50;91.00;;;;;;5014556;28;20221;-71
2022/12/06 13:31:35;;;;;;;3.53;3.17;;;5.40;90.90;;;;;;5011431;28;20794;-71
2022/12/06 13:34:12;;;;;;;3.85;2.85;;;5.40;90.90;;;;;;5016478;28;20447;-71
2022/12/06 13:36:41;;;;;;;3.70;2.70;;;5.50;91.00;;;;;;5001238;28;20210;-70
2022/12/06 13:39:39;;;;;;;3.97;2.92;;;5.40;90.90;;;;;;5002923;28;20268;-71
2022/12/06 13:42:23;;;;;;;4.30;3.42;;;5.50;90.90;;;;;;5012073;28;20202;-72
2022/12/06 13:44:58;;;;;;;3.92;2.92;;;5.50;90.90;;;;;;5021239;28;20198;-70
2022/12/06 13:47:51;;;;;;;3.53;3.22;;;5.40;90.90;;;;;;5005694;28;20244;-70
2022/12/06 13:50:50;;;;;;;3.03;2.72;;;5.50;91.00;;;;;;5010280;28;20631;-70
2022/12/06 13:53:20;;;;;;;2.90;2.67;;;5.50;91.00;;;;;;5011085;28;20225;-72
2022/12/06 13:55:56;;;;;;;3.58;2.75;;;5.40;90.90;;;;;;5014403;28;20208;-71
2022/12/06 13:58:51;;;;;;;3.50;2.70;;;5.40;90.90;;;;;;5012840;28;20220;-71
2022/12/06 14:01:39;;;;;;;4.18;2.95;;;5.40;90.90;;;;;;4990303;28;20551;-70